sensor_id;sensor_type;location;lat;lon;timestamp;P1;durP1;ratioP1;P2;durP2;ratioP2
14121;SDS011;7139;48.114;11.442;2022-12-31T00:01:05;0.67;;;0.67;;
14121;SDS011;7139;48.114;11.442;2022-12-31T00:03:34;0.50;;;0.50;;
14121;SDS011;7139;48.114;11.442;2022-12-31T00:06:01;0.70;;;0.50;;
14121;SDS011;7139;48.114;11.442;2022-12-31T00:08:38;0.50;;;0.50;;
14121;SDS011;7139;48.114;11.442;2022-12-31T00:11:04;0.50;;;0.50;;
14121;SDS011;7139;48.114;11.442;2022-12-31T00:13:33;0.50;;;0.50;;
14121;SDS011;7139;48.114;11.442;2022-12-31T00:16:04;0.53;;;0.40;;
14121;SDS011;7139;48.114;11.442;2022-12-31T00:18:32;0.47;;;0.47;;
14121;SDS011;7139;48.114;11.442;2022-12-31T00:20:58;0.87;;;0.60;;
14121;SDS011;7139;48.114;11.442;2022-12-31T00:23:28;0.97;;;0.50;;
14121;SDS011;7139;48.114;11.442;2022-12-31T00:25:55;0.40;;;0.40;;
14121;SDS011;7139;48.114;11.442;2022-12-31T00:28:26;0.57;;;0.57;;
14121;SDS011;7139;48.114;11.442;2022-12-31T00:30:54;0.50;;;0.50;;
14121;SDS011;7139;48.114;11.442;2022-12-31T00:33:21;0.50;;;0.50;;
14121;SDS011;7139;48.114;11.442;2022-12-31T00:35:48;0.60;;;0.60;;
14121;SDS011;7139;48.114;11.442;2022-12-31T00:38:14;0.40;;;0.40;;
14121;SDS011;7139;48.114;11.442;2022-12-31T00:40:41;0.50;;;0.50;;
14121;SDS011;7139;48.114;11.442;2022-12-31T00:43:08;0.40;;;0.40;;
14121;SDS011;7139;48.114;11.442;2022-12-31T00:45:35;0.47;;;0.47;;
14121;SDS011;7139;48.114;11.442;2022-12-31T00:48:03;0.50;;;0.50;;
14121;SDS011;7139;48.114;11.442;2022-12-31T00:50:30;0.50;;;0.50;;
14121;SDS011;7139;48.114;11.442;2022-12-31T00:52:57;0.40;;;0.40;;
14121;SDS011;7139;48.114;11.442;2022-12-31T00:55:23;0.57;;;0.57;;
14121;SDS011;7139;48.114;11.442;2022-12-31T00:57:50;0.83;;;0.80;;
14121;SDS011;7139;48.114;11.442;2022-12-31T01:00:17;0.97;;;0.60;;
14121;SDS011;7139;48.114;11.442;2022-12-31T01:02:44;0.40;;;0.40;;
14121;SDS011;7139;48.114;11.442;2022-12-31T01:05:12;0.50;;;0.50;;
14121;SDS011;7139;48.114;11.442;2022-12-31T01:07:39;0.50;;;0.50;;
14121;SDS011;7139;48.114;11.442;2022-12-31T01:10:06;0.50;;;0.50;;
14121;SDS011;7139;48.114;11.442;2022-12-31T01:12:33;0.50;;;0.50;;
14121;SDS011;7139;48.114;11.442;2022-12-31T01:15:00;1.03;;;0.50;;
14121;SDS011;7139;48.114;11.442;2022-12-31T01:17:26;0.60;;;0.60;;
14121;SDS011;7139;48.114;11.442;2022-12-31T01:19:53;0.50;;;0.50;;
14121;SDS011;7139;48.114;11.442;2022-12-31T01:22:21;0.90;;;0.50;;
14121;SDS011;7139;48.114;11.442;2022-12-31T01:24:48;1.07;;;0.60;;
14121;SDS011;7139;48.114;11.442;2022-12-31T01:27:15;0.67;;;0.60;;
14121;SDS011;7139;48.114;11.442;2022-12-31T01:29:41;0.57;;;0.57;;
14121;SDS011;7139;48.114;11.442;2022-12-31T01:32:08;1.53;;;0.60;;
14121;SDS011;7139;48.114;11.442;2022-12-31T01:34:35;0.77;;;0.60;;
14121;SDS011;7139;48.114;11.442;2022-12-31T01:37:02;0.50;;;0.50;;
14121;SDS011;7139;48.114;11.442;2022-12-31T01:39:30;0.50;;;0.50;;
14121;SDS011;7139;48.114;11.442;2022-12-31T01:41:56;0.50;;;0.50;;
14121;SDS011;7139;48.114;11.442;2022-12-31T01:47:14;0.50;;;0.50;;
14121;SDS011;7139;48.114;11.442;2022-12-31T01:49:46;0.50;;;0.50;;
14121;SDS011;7139;48.114;11.442;2022-12-31T01:52:17;0.50;;;0.50;;
14121;SDS011;7139;48.114;11.442;2022-12-31T01:54:49;0.53;;;0.53;;
14121;SDS011;7139;48.114;11.442;2022-12-31T01:57:19;0.40;;;0.40;;
14121;SDS011;7139;48.114;11.442;2022-12-31T01:59:47;0.60;;;0.60;;
14121;SDS011;7139;48.114;11.442;2022-12-31T02:02:14;0.43;;;0.43;;
14121;SDS011;7139;48.114;11.442;2022-12-31T02:04:41;0.50;;;0.50;;
14121;SDS011;7139;48.114;11.442;2022-12-31T02:07:09;1.23;;;0.50;;
14121;SDS011;7139;48.114;11.442;2022-12-31T02:09:37;1.30;;;0.40;;
14121;SDS011;7139;48.114;11.442;2022-12-31T02:12:07;0.47;;;0.47;;
14121;SDS011;7139;48.114;11.442;2022-12-31T02:14:36;0.80;;;0.50;;
14121;SDS011;7139;48.114;11.442;2022-12-31T02:17:06;0.40;;;0.40;;
14121;SDS011;7139;48.114;11.442;2022-12-31T02:22:55;0.40;;;0.40;;
14121;SDS011;7139;48.114;11.442;2022-12-31T02:25:36;0.40;;;0.40;;
14121;SDS011;7139;48.114;11.442;2022-12-31T02:28:23;0.50;;;0.50;;
14121;SDS011;7139;48.114;11.442;2022-12-31T02:31:02;0.40;;;0.40;;
14121;SDS011;7139;48.114;11.442;2022-12-31T02:33:34;1.13;;;0.60;;
14121;SDS011;7139;48.114;11.442;2022-12-31T02:36:04;0.43;;;0.43;;
14121;SDS011;7139;48.114;11.442;2022-12-31T02:38:38;0.50;;;0.50;;
14121;SDS011;7139;48.114;11.442;2022-12-31T02:41:11;0.50;;;0.37;;
14121;SDS011;7139;48.114;11.442;2022-12-31T02:43:58;1.23;;;0.40;;
14121;SDS011;7139;48.114;11.442;2022-12-31T02:46:28;0.40;;;0.40;;
14121;SDS011;7139;48.114;11.442;2022-12-31T02:49:01;0.43;;;0.40;;
14121;SDS011;7139;48.114;11.442;2022-12-31T02:51:35;0.60;;;0.50;;
14121;SDS011;7139;48.114;11.442;2022-12-31T02:54:21;0.50;;;0.50;;
14121;SDS011;7139;48.114;11.442;2022-12-31T02:56:58;0.40;;;0.40;;
14121;SDS011;7139;48.114;11.442;2022-12-31T02:59:32;0.60;;;0.57;;
14121;SDS011;7139;48.114;11.442;2022-12-31T03:02:30;1.27;;;0.50;;
14121;SDS011;7139;48.114;11.442;2022-12-31T03:04:59;0.47;;;0.47;;
14121;SDS011;7139;48.114;11.442;2022-12-31T03:07:29;0.40;;;0.40;;
14121;SDS011;7139;48.114;11.442;2022-12-31T03:09:57;1.30;;;0.50;;
14121;SDS011;7139;48.114;11.442;2022-12-31T03:12:26;0.37;;;0.37;;
14121;SDS011;7139;48.114;11.442;2022-12-31T03:15:12;0.40;;;0.40;;
14121;SDS011;7139;48.114;11.442;2022-12-31T03:17:51;0.67;;;0.40;;
14121;SDS011;7139;48.114;11.442;2022-12-31T03:20:21;0.30;;;0.30;;
14121;SDS011;7139;48.114;11.442;2022-12-31T03:23:09;0.40;;;0.40;;
14121;SDS011;7139;48.114;11.442;2022-12-31T03:25:37;2.10;;;0.60;;
14121;SDS011;7139;48.114;11.442;2022-12-31T03:28:04;0.70;;;0.50;;
14121;SDS011;7139;48.114;11.442;2022-12-31T03:30:33;0.43;;;0.43;;
14121;SDS011;7139;48.114;11.442;2022-12-31T03:33:02;0.40;;;0.40;;
14121;SDS011;7139;48.114;11.442;2022-12-31T03:35:30;0.43;;;0.43;;
14121;SDS011;7139;48.114;11.442;2022-12-31T03:37:58;0.57;;;0.57;;
14121;SDS011;7139;48.114;11.442;2022-12-31T03:40:26;0.50;;;0.50;;
14121;SDS011;7139;48.114;11.442;2022-12-31T03:42:54;0.43;;;0.40;;
14121;SDS011;7139;48.114;11.442;2022-12-31T03:45:21;0.40;;;0.40;;
14121;SDS011;7139;48.114;11.442;2022-12-31T03:47:48;0.37;;;0.37;;
14121;SDS011;7139;48.114;11.442;2022-12-31T03:50:16;0.40;;;0.40;;
14121;SDS011;7139;48.114;11.442;2022-12-31T03:52:44;0.40;;;0.40;;
14121;SDS011;7139;48.114;11.442;2022-12-31T03:55:11;0.30;;;0.30;;
14121;SDS011;7139;48.114;11.442;2022-12-31T03:57:39;0.63;;;0.50;;
14121;SDS011;7139;48.114;11.442;2022-12-31T04:00:07;0.57;;;0.57;;
14121;SDS011;7139;48.114;11.442;2022-12-31T04:02:35;1.30;;;0.50;;
14121;SDS011;7139;48.114;11.442;2022-12-31T04:05:02;0.50;;;0.40;;
14121;SDS011;7139;48.114;11.442;2022-12-31T04:07:31;0.40;;;0.40;;
14121;SDS011;7139;48.114;11.442;2022-12-31T04:09:57;0.37;;;0.37;;
14121;SDS011;7139;48.114;11.442;2022-12-31T04:12:24;0.50;;;0.50;;
14121;SDS011;7139;48.114;11.442;2022-12-31T04:14:51;0.60;;;0.60;;
14121;SDS011;7139;48.114;11.442;2022-12-31T04:17:17;0.43;;;0.43;;
14121;SDS011;7139;48.114;11.442;2022-12-31T04:19:44;1.27;;;0.60;;
14121;SDS011;7139;48.114;11.442;2022-12-31T04:22:11;0.40;;;0.40;;
14121;SDS011;7139;48.114;11.442;2022-12-31T04:24:40;0.93;;;0.50;;
14121;SDS011;7139;48.114;11.442;2022-12-31T04:27:07;0.47;;;0.47;;
14121;SDS011;7139;48.114;11.442;2022-12-31T04:29:34;0.40;;;0.40;;
14121;SDS011;7139;48.114;11.442;2022-12-31T04:32:01;0.40;;;0.40;;
14121;SDS011;7139;48.114;11.442;2022-12-31T04:34:28;0.40;;;0.40;;
14121;SDS011;7139;48.114;11.442;2022-12-31T04:36:55;0.50;;;0.50;;
14121;SDS011;7139;48.114;11.442;2022-12-31T04:39:22;0.80;;;0.50;;
14121;SDS011;7139;48.114;11.442;2022-12-31T04:41:50;0.50;;;0.50;;
14121;SDS011;7139;48.114;11.442;2022-12-31T04:44:18;0.40;;;0.40;;
14121;SDS011;7139;48.114;11.442;2022-12-31T04:46:45;1.17;;;0.40;;
14121;SDS011;7139;48.114;11.442;2022-12-31T04:49:12;0.50;;;0.50;;
14121;SDS011;7139;48.114;11.442;2022-12-31T04:51:39;0.87;;;0.40;;
14121;SDS011;7139;48.114;11.442;2022-12-31T04:54:05;0.57;;;0.50;;
14121;SDS011;7139;48.114;11.442;2022-12-31T04:56:32;1.37;;;0.40;;
14121;SDS011;7139;48.114;11.442;2022-12-31T04:59:01;0.50;;;0.50;;
14121;SDS011;7139;48.114;11.442;2022-12-31T05:01:28;0.50;;;0.50;;
14121;SDS011;7139;48.114;11.442;2022-12-31T05:03:55;0.43;;;0.43;;
14121;SDS011;7139;48.114;11.442;2022-12-31T05:06:22;0.50;;;0.50;;
14121;SDS011;7139;48.114;11.442;2022-12-31T05:08:49;0.40;;;0.40;;
14121;SDS011;7139;48.114;11.442;2022-12-31T05:11:16;0.50;;;0.50;;
14121;SDS011;7139;48.114;11.442;2022-12-31T05:13:43;0.50;;;0.50;;
14121;SDS011;7139;48.114;11.442;2022-12-31T05:16:11;0.50;;;0.50;;
14121;SDS011;7139;48.114;11.442;2022-12-31T05:18:37;0.50;;;0.50;;
14121;SDS011;7139;48.114;11.442;2022-12-31T05:21:05;0.43;;;0.40;;
14121;SDS011;7139;48.114;11.442;2022-12-31T05:23:32;0.40;;;0.40;;
14121;SDS011;7139;48.114;11.442;2022-12-31T05:25:59;0.70;;;0.50;;
14121;SDS011;7139;48.114;11.442;2022-12-31T05:28:26;0.50;;;0.50;;
14121;SDS011;7139;48.114;11.442;2022-12-31T05:30:53;0.50;;;0.50;;
14121;SDS011;7139;48.114;11.442;2022-12-31T05:33:21;0.80;;;0.40;;
14121;SDS011;7139;48.114;11.442;2022-12-31T05:35:48;0.37;;;0.37;;
14121;SDS011;7139;48.114;11.442;2022-12-31T05:38:15;0.47;;;0.47;;
14121;SDS011;7139;48.114;11.442;2022-12-31T05:40:42;0.90;;;0.57;;
14121;SDS011;7139;48.114;11.442;2022-12-31T05:43:09;0.40;;;0.40;;
14121;SDS011;7139;48.114;11.442;2022-12-31T05:45:36;0.57;;;0.57;;
14121;SDS011;7139;48.114;11.442;2022-12-31T05:48:03;0.93;;;0.50;;
14121;SDS011;7139;48.114;11.442;2022-12-31T05:50:31;0.50;;;0.50;;
14121;SDS011;7139;48.114;11.442;2022-12-31T05:52:58;1.03;;;0.40;;
14121;SDS011;7139;48.114;11.442;2022-12-31T05:55:25;0.50;;;0.50;;
14121;SDS011;7139;48.114;11.442;2022-12-31T05:57:51;0.50;;;0.50;;
14121;SDS011;7139;48.114;11.442;2022-12-31T06:00:18;0.40;;;0.40;;
14121;SDS011;7139;48.114;11.442;2022-12-31T06:02:45;0.50;;;0.50;;
14121;SDS011;7139;48.114;11.442;2022-12-31T06:05:11;0.67;;;0.60;;
14121;SDS011;7139;48.114;11.442;2022-12-31T06:07:40;0.97;;;0.60;;
14121;SDS011;7139;48.114;11.442;2022-12-31T06:10:07;1.30;;;0.57;;
14121;SDS011;7139;48.114;11.442;2022-12-31T06:12:34;0.60;;;0.60;;
14121;SDS011;7139;48.114;11.442;2022-12-31T06:15:01;0.57;;;0.57;;
14121;SDS011;7139;48.114;11.442;2022-12-31T06:17:29;1.07;;;0.50;;
14121;SDS011;7139;48.114;11.442;2022-12-31T06:19:56;0.50;;;0.50;;
14121;SDS011;7139;48.114;11.442;2022-12-31T06:22:23;0.70;;;0.60;;
14121;SDS011;7139;48.114;11.442;2022-12-31T06:24:52;0.83;;;0.60;;
14121;SDS011;7139;48.114;11.442;2022-12-31T06:27:19;0.70;;;0.70;;
14121;SDS011;7139;48.114;11.442;2022-12-31T06:29:46;0.50;;;0.50;;
14121;SDS011;7139;48.114;11.442;2022-12-31T06:32:13;0.60;;;0.60;;
14121;SDS011;7139;48.114;11.442;2022-12-31T06:34:41;1.53;;;0.70;;
14121;SDS011;7139;48.114;11.442;2022-12-31T06:37:07;1.00;;;0.60;;
14121;SDS011;7139;48.114;11.442;2022-12-31T06:39:34;0.77;;;0.77;;
14121;SDS011;7139;48.114;11.442;2022-12-31T06:42:02;1.00;;;0.90;;
14121;SDS011;7139;48.114;11.442;2022-12-31T06:44:29;1.43;;;1.00;;
14121;SDS011;7139;48.114;11.442;2022-12-31T06:46:56;1.20;;;1.07;;
14121;SDS011;7139;48.114;11.442;2022-12-31T06:49:23;1.30;;;1.07;;
14121;SDS011;7139;48.114;11.442;2022-12-31T06:51:49;1.07;;;0.97;;
14121;SDS011;7139;48.114;11.442;2022-12-31T06:54:16;1.10;;;1.00;;
14121;SDS011;7139;48.114;11.442;2022-12-31T06:56:43;1.20;;;1.10;;
14121;SDS011;7139;48.114;11.442;2022-12-31T06:59:16;1.00;;;0.90;;
14121;SDS011;7139;48.114;11.442;2022-12-31T07:02:04;0.90;;;0.90;;
14121;SDS011;7139;48.114;11.442;2022-12-31T07:04:45;0.80;;;0.80;;
14121;SDS011;7139;48.114;11.442;2022-12-31T07:07:31;0.70;;;0.70;;
14121;SDS011;7139;48.114;11.442;2022-12-31T07:10:01;0.80;;;0.70;;
14121;SDS011;7139;48.114;11.442;2022-12-31T07:12:45;0.60;;;0.60;;
14121;SDS011;7139;48.114;11.442;2022-12-31T07:15:36;1.03;;;0.70;;
14121;SDS011;7139;48.114;11.442;2022-12-31T07:18:14;0.50;;;0.50;;
14121;SDS011;7139;48.114;11.442;2022-12-31T07:20:51;1.80;;;0.60;;
14121;SDS011;7139;48.114;11.442;2022-12-31T07:23:18;0.60;;;0.60;;
14121;SDS011;7139;48.114;11.442;2022-12-31T07:25:48;0.77;;;0.77;;
14121;SDS011;7139;48.114;11.442;2022-12-31T07:28:21;0.60;;;0.60;;
14121;SDS011;7139;48.114;11.442;2022-12-31T07:33:45;0.50;;;0.50;;
14121;SDS011;7139;48.114;11.442;2022-12-31T07:36:25;0.73;;;0.60;;
14121;SDS011;7139;48.114;11.442;2022-12-31T07:39:13;0.93;;;0.60;;
14121;SDS011;7139;48.114;11.442;2022-12-31T07:41:47;0.60;;;0.60;;
14121;SDS011;7139;48.114;11.442;2022-12-31T07:44:23;0.60;;;0.60;;
14121;SDS011;7139;48.114;11.442;2022-12-31T07:47:00;1.53;;;0.60;;
14121;SDS011;7139;48.114;11.442;2022-12-31T07:49:29;0.50;;;0.50;;
14121;SDS011;7139;48.114;11.442;2022-12-31T07:51:58;0.60;;;0.50;;
14121;SDS011;7139;48.114;11.442;2022-12-31T07:54:25;0.70;;;0.70;;
14121;SDS011;7139;48.114;11.442;2022-12-31T07:56:52;1.23;;;0.70;;
14121;SDS011;7139;48.114;11.442;2022-12-31T07:59:22;0.60;;;0.60;;
14121;SDS011;7139;48.114;11.442;2022-12-31T08:02:01;0.70;;;0.70;;
14121;SDS011;7139;48.114;11.442;2022-12-31T08:04:33;0.80;;;0.80;;
14121;SDS011;7139;48.114;11.442;2022-12-31T08:07:12;0.83;;;0.70;;
14121;SDS011;7139;48.114;11.442;2022-12-31T08:09:48;0.60;;;0.60;;
14121;SDS011;7139;48.114;11.442;2022-12-31T08:12:26;0.60;;;0.60;;
14121;SDS011;7139;48.114;11.442;2022-12-31T08:14:59;1.40;;;0.60;;
14121;SDS011;7139;48.114;11.442;2022-12-31T08:17:27;0.63;;;0.63;;
14121;SDS011;7139;48.114;11.442;2022-12-31T08:19:54;0.70;;;0.70;;
14121;SDS011;7139;48.114;11.442;2022-12-31T08:22:25;0.63;;;0.63;;
14121;SDS011;7139;48.114;11.442;2022-12-31T08:25:13;0.70;;;0.70;;
14121;SDS011;7139;48.114;11.442;2022-12-31T08:27:47;0.70;;;0.70;;
14121;SDS011;7139;48.114;11.442;2022-12-31T08:30:22;0.60;;;0.60;;
14121;SDS011;7139;48.114;11.442;2022-12-31T08:32:57;0.60;;;0.60;;
14121;SDS011;7139;48.114;11.442;2022-12-31T08:35:33;0.70;;;0.70;;
14121;SDS011;7139;48.114;11.442;2022-12-31T08:38:15;0.50;;;0.50;;
14121;SDS011;7139;48.114;11.442;2022-12-31T08:40:53;0.67;;;0.67;;
14121;SDS011;7139;48.114;11.442;2022-12-31T08:43:30;1.07;;;0.67;;
14121;SDS011;7139;48.114;11.442;2022-12-31T08:46:06;0.50;;;0.50;;
14121;SDS011;7139;48.114;11.442;2022-12-31T08:48:42;0.57;;;0.57;;
14121;SDS011;7139;48.114;11.442;2022-12-31T08:51:13;0.93;;;0.70;;
14121;SDS011;7139;48.114;11.442;2022-12-31T08:53:43;0.70;;;0.60;;
14121;SDS011;7139;48.114;11.442;2022-12-31T08:56:12;0.60;;;0.60;;
14121;SDS011;7139;48.114;11.442;2022-12-31T08:58:52;0.70;;;0.70;;
14121;SDS011;7139;48.114;11.442;2022-12-31T09:01:38;0.57;;;0.57;;
14121;SDS011;7139;48.114;11.442;2022-12-31T09:04:18;0.90;;;0.90;;
14121;SDS011;7139;48.114;11.442;2022-12-31T09:06:52;0.50;;;0.50;;
14121;SDS011;7139;48.114;11.442;2022-12-31T09:09:25;1.07;;;0.70;;
14121;SDS011;7139;48.114;11.442;2022-12-31T09:11:59;0.63;;;0.63;;
14121;SDS011;7139;48.114;11.442;2022-12-31T09:14:37;0.60;;;0.60;;
14121;SDS011;7139;48.114;11.442;2022-12-31T09:17:09;0.60;;;0.60;;
14121;SDS011;7139;48.114;11.442;2022-12-31T09:19:52;0.60;;;0.60;;
14121;SDS011;7139;48.114;11.442;2022-12-31T09:22:19;1.00;;;0.90;;
14121;SDS011;7139;48.114;11.442;2022-12-31T09:24:47;0.60;;;0.60;;
14121;SDS011;7139;48.114;11.442;2022-12-31T09:27:15;0.63;;;0.53;;
14121;SDS011;7139;48.114;11.442;2022-12-31T09:29:49;0.50;;;0.50;;
14121;SDS011;7139;48.114;11.442;2022-12-31T09:32:24;1.03;;;0.70;;
14121;SDS011;7139;48.114;11.442;2022-12-31T09:35:01;0.80;;;0.80;;
14121;SDS011;7139;48.114;11.442;2022-12-31T09:37:37;0.70;;;0.70;;
14121;SDS011;7139;48.114;11.442;2022-12-31T09:40:16;0.70;;;0.70;;
14121;SDS011;7139;48.114;11.442;2022-12-31T09:42:58;1.23;;;0.80;;
14121;SDS011;7139;48.114;11.442;2022-12-31T09:46:08;0.70;;;0.70;;
14121;SDS011;7139;48.114;11.442;2022-12-31T09:51:59;0.80;;;0.80;;
14121;SDS011;7139;48.114;11.442;2022-12-31T09:54:43;0.83;;;0.83;;
14121;SDS011;7139;48.114;11.442;2022-12-31T09:57:29;0.73;;;0.73;;
14121;SDS011;7139;48.114;11.442;2022-12-31T10:00:04;0.70;;;0.70;;
14121;SDS011;7139;48.114;11.442;2022-12-31T10:02:46;0.70;;;0.70;;
14121;SDS011;7139;48.114;11.442;2022-12-31T10:05:27;0.80;;;0.70;;
14121;SDS011;7139;48.114;11.442;2022-12-31T10:08:09;1.13;;;0.80;;
14121;SDS011;7139;48.114;11.442;2022-12-31T10:10:45;0.60;;;0.60;;
14121;SDS011;7139;48.114;11.442;2022-12-31T10:13:23;0.70;;;0.70;;
14121;SDS011;7139;48.114;11.442;2022-12-31T10:16:03;0.70;;;0.70;;
14121;SDS011;7139;48.114;11.442;2022-12-31T10:18:49;1.00;;;0.60;;
14121;SDS011;7139;48.114;11.442;2022-12-31T10:21:29;0.70;;;0.70;;
14121;SDS011;7139;48.114;11.442;2022-12-31T10:24:18;0.70;;;0.70;;
14121;SDS011;7139;48.114;11.442;2022-12-31T10:27:07;0.60;;;0.60;;
14121;SDS011;7139;48.114;11.442;2022-12-31T10:29:55;1.03;;;0.93;;
14121;SDS011;7139;48.114;11.442;2022-12-31T10:32:29;0.80;;;0.80;;
14121;SDS011;7139;48.114;11.442;2022-12-31T10:35:18;0.80;;;0.80;;
14121;SDS011;7139;48.114;11.442;2022-12-31T10:37:55;1.20;;;0.90;;
14121;SDS011;7139;48.114;11.442;2022-12-31T10:40:36;0.83;;;0.83;;
14121;SDS011;7139;48.114;11.442;2022-12-31T10:43:32;1.03;;;0.90;;
14121;SDS011;7139;48.114;11.442;2022-12-31T10:49:29;0.97;;;0.70;;
14121;SDS011;7139;48.114;11.442;2022-12-31T10:58:46;0.93;;;0.70;;
14121;SDS011;7139;48.114;11.442;2022-12-31T11:01:33;0.60;;;0.60;;
14121;SDS011;7139;48.114;11.442;2022-12-31T11:04:18;0.50;;;0.50;;
14121;SDS011;7139;48.114;11.442;2022-12-31T11:07:16;0.93;;;0.70;;
14121;SDS011;7139;48.114;11.442;2022-12-31T11:13:10;0.70;;;0.70;;
14121;SDS011;7139;48.114;11.442;2022-12-31T11:16:12;0.83;;;0.50;;
14121;SDS011;7139;48.114;11.442;2022-12-31T11:18:56;0.87;;;0.87;;
14121;SDS011;7139;48.114;11.442;2022-12-31T11:21:30;0.60;;;0.60;;
14121;SDS011;7139;48.114;11.442;2022-12-31T11:24:04;1.17;;;0.60;;
14121;SDS011;7139;48.114;11.442;2022-12-31T11:26:46;0.80;;;0.80;;
14121;SDS011;7139;48.114;11.442;2022-12-31T11:29:23;0.67;;;0.67;;
14121;SDS011;7139;48.114;11.442;2022-12-31T11:32:05;0.97;;;0.90;;
14121;SDS011;7139;48.114;11.442;2022-12-31T11:34:56;0.63;;;0.63;;
14121;SDS011;7139;48.114;11.442;2022-12-31T11:37:43;0.60;;;0.60;;
14121;SDS011;7139;48.114;11.442;2022-12-31T11:40:20;1.30;;;0.50;;
14121;SDS011;7139;48.114;11.442;2022-12-31T11:43:22;0.90;;;0.70;;
14121;SDS011;7139;48.114;11.442;2022-12-31T11:49:07;1.03;;;0.60;;
14121;SDS011;7139;48.114;11.442;2022-12-31T11:51:53;1.20;;;0.80;;
14121;SDS011;7139;48.114;11.442;2022-12-31T11:54:41;0.87;;;0.87;;
14121;SDS011;7139;48.114;11.442;2022-12-31T11:57:21;0.70;;;0.70;;
14121;SDS011;7139;48.114;11.442;2022-12-31T11:59:53;1.43;;;1.33;;
14121;SDS011;7139;48.114;11.442;2022-12-31T12:02:25;0.90;;;0.90;;
14121;SDS011;7139;48.114;11.442;2022-12-31T12:04:56;0.50;;;0.50;;
14121;SDS011;7139;48.114;11.442;2022-12-31T12:07:25;0.83;;;0.83;;
14121;SDS011;7139;48.114;11.442;2022-12-31T12:09:53;1.00;;;0.90;;
14121;SDS011;7139;48.114;11.442;2022-12-31T12:12:22;0.70;;;0.70;;
14121;SDS011;7139;48.114;11.442;2022-12-31T12:14:50;1.13;;;1.03;;
14121;SDS011;7139;48.114;11.442;2022-12-31T12:17:22;0.60;;;0.60;;
14121;SDS011;7139;48.114;11.442;2022-12-31T12:19:58;1.50;;;0.70;;
14121;SDS011;7139;48.114;11.442;2022-12-31T12:22:27;0.80;;;0.80;;
14121;SDS011;7139;48.114;11.442;2022-12-31T12:24:56;1.00;;;0.90;;
14121;SDS011;7139;48.114;11.442;2022-12-31T12:27:29;1.47;;;0.93;;
14121;SDS011;7139;48.114;11.442;2022-12-31T12:29:57;1.07;;;0.77;;
14121;SDS011;7139;48.114;11.442;2022-12-31T12:32:32;1.20;;;1.10;;
14121;SDS011;7139;48.114;11.442;2022-12-31T12:35:00;1.10;;;1.00;;
14121;SDS011;7139;48.114;11.442;2022-12-31T12:37:38;0.93;;;0.93;;
14121;SDS011;7139;48.114;11.442;2022-12-31T12:40:06;3.43;;;3.13;;
14121;SDS011;7139;48.114;11.442;2022-12-31T12:42:45;2.73;;;1.73;;
14121;SDS011;7139;48.114;11.442;2022-12-31T12:45:13;1.60;;;1.20;;
14121;SDS011;7139;48.114;11.442;2022-12-31T12:47:41;1.37;;;0.90;;
14121;SDS011;7139;48.114;11.442;2022-12-31T12:50:12;1.37;;;1.27;;
14121;SDS011;7139;48.114;11.442;2022-12-31T12:52:48;1.47;;;1.20;;
14121;SDS011;7139;48.114;11.442;2022-12-31T12:55:25;2.50;;;2.20;;
14121;SDS011;7139;48.114;11.442;2022-12-31T12:58:01;2.13;;;1.83;;
14121;SDS011;7139;48.114;11.442;2022-12-31T13:00:33;2.50;;;1.67;;
14121;SDS011;7139;48.114;11.442;2022-12-31T13:06:19;3.20;;;2.53;;
14121;SDS011;7139;48.114;11.442;2022-12-31T13:09:01;2.13;;;1.83;;
14121;SDS011;7139;48.114;11.442;2022-12-31T13:11:44;1.93;;;1.60;;
14121;SDS011;7139;48.114;11.442;2022-12-31T13:14:21;2.83;;;1.60;;
14121;SDS011;7139;48.114;11.442;2022-12-31T13:16:53;2.00;;;1.30;;
14121;SDS011;7139;48.114;11.442;2022-12-31T13:19:27;1.77;;;1.30;;
14121;SDS011;7139;48.114;11.442;2022-12-31T13:22:02;3.80;;;1.50;;
14121;SDS011;7139;48.114;11.442;2022-12-31T13:24:39;1.87;;;1.53;;
14121;SDS011;7139;48.114;11.442;2022-12-31T13:27:14;3.00;;;2.50;;
14121;SDS011;7139;48.114;11.442;2022-12-31T13:29:47;2.93;;;2.30;;
14121;SDS011;7139;48.114;11.442;2022-12-31T13:32:16;4.07;;;3.23;;
14121;SDS011;7139;48.114;11.442;2022-12-31T13:34:45;5.57;;;4.83;;
14121;SDS011;7139;48.114;11.442;2022-12-31T13:37:23;2.67;;;2.47;;
14121;SDS011;7139;48.114;11.442;2022-12-31T13:39:55;4.13;;;3.73;;
14121;SDS011;7139;48.114;11.442;2022-12-31T13:42:27;1.60;;;1.50;;
14121;SDS011;7139;48.114;11.442;2022-12-31T13:45:01;2.50;;;1.57;;
14121;SDS011;7139;48.114;11.442;2022-12-31T13:47:36;3.10;;;1.67;;
14121;SDS011;7139;48.114;11.442;2022-12-31T13:50:10;2.00;;;1.30;;
14121;SDS011;7139;48.114;11.442;2022-12-31T13:52:45;1.27;;;1.17;;
14121;SDS011;7139;48.114;11.442;2022-12-31T13:55:19;1.80;;;1.27;;
14121;SDS011;7139;48.114;11.442;2022-12-31T13:57:49;2.40;;;1.80;;
14121;SDS011;7139;48.114;11.442;2022-12-31T14:00:20;3.43;;;1.80;;
14121;SDS011;7139;48.114;11.442;2022-12-31T14:02:57;1.60;;;1.20;;
14121;SDS011;7139;48.114;11.442;2022-12-31T14:05:35;1.40;;;1.30;;
14121;SDS011;7139;48.114;11.442;2022-12-31T14:08:08;1.67;;;1.27;;
14121;SDS011;7139;48.114;11.442;2022-12-31T14:10:39;1.70;;;1.40;;
14121;SDS011;7139;48.114;11.442;2022-12-31T14:13:23;1.37;;;1.20;;
14121;SDS011;7139;48.114;11.442;2022-12-31T14:16:01;2.07;;;1.47;;
14121;SDS011;7139;48.114;11.442;2022-12-31T14:18:35;2.63;;;1.27;;
14121;SDS011;7139;48.114;11.442;2022-12-31T14:21:10;3.50;;;3.20;;
14121;SDS011;7139;48.114;11.442;2022-12-31T14:23:47;3.70;;;3.40;;
14121;SDS011;7139;48.114;11.442;2022-12-31T14:26:20;3.60;;;2.70;;
14121;SDS011;7139;48.114;11.442;2022-12-31T14:28:54;3.83;;;2.93;;
14121;SDS011;7139;48.114;11.442;2022-12-31T14:31:29;5.10;;;4.57;;
14121;SDS011;7139;48.114;11.442;2022-12-31T14:34:11;3.83;;;3.40;;
14121;SDS011;7139;48.114;11.442;2022-12-31T14:36:48;4.70;;;3.40;;
14121;SDS011;7139;48.114;11.442;2022-12-31T14:39:28;4.83;;;4.27;;
14121;SDS011;7139;48.114;11.442;2022-12-31T14:42:08;11.43;;;7.27;;
14121;SDS011;7139;48.114;11.442;2022-12-31T14:44:45;9.37;;;6.50;;
14121;SDS011;7139;48.114;11.442;2022-12-31T14:47:26;8.63;;;5.90;;
14121;SDS011;7139;48.114;11.442;2022-12-31T14:49:59;8.77;;;4.60;;
14121;SDS011;7139;48.114;11.442;2022-12-31T14:52:31;5.60;;;3.90;;
14121;SDS011;7139;48.114;11.442;2022-12-31T14:55:02;6.10;;;3.90;;
14121;SDS011;7139;48.114;11.442;2022-12-31T14:57:46;5.90;;;3.70;;
14121;SDS011;7139;48.114;11.442;2022-12-31T15:00:20;4.43;;;2.63;;
14121;SDS011;7139;48.114;11.442;2022-12-31T15:02:54;4.50;;;1.93;;
14121;SDS011;7139;48.114;11.442;2022-12-31T15:05:23;3.30;;;1.70;;
14121;SDS011;7139;48.114;11.442;2022-12-31T15:07:54;5.37;;;1.80;;
14121;SDS011;7139;48.114;11.442;2022-12-31T15:10:52;1.93;;;1.60;;
14121;SDS011;7139;48.114;11.442;2022-12-31T15:13:36;3.20;;;1.83;;
14121;SDS011;7139;48.114;11.442;2022-12-31T15:16:14;4.33;;;1.90;;
14121;SDS011;7139;48.114;11.442;2022-12-31T15:18:53;4.00;;;2.30;;
14121;SDS011;7139;48.114;11.442;2022-12-31T15:21:33;3.70;;;2.60;;
14121;SDS011;7139;48.114;11.442;2022-12-31T15:24:12;3.80;;;2.10;;
14121;SDS011;7139;48.114;11.442;2022-12-31T15:26:47;1.77;;;1.57;;
14121;SDS011;7139;48.114;11.442;2022-12-31T15:29:24;4.57;;;2.00;;
14121;SDS011;7139;48.114;11.442;2022-12-31T15:31:53;4.13;;;1.80;;
14121;SDS011;7139;48.114;11.442;2022-12-31T15:34:25;2.77;;;1.43;;
14121;SDS011;7139;48.114;11.442;2022-12-31T15:36:54;2.30;;;1.70;;
14121;SDS011;7139;48.114;11.442;2022-12-31T15:39:25;3.03;;;1.80;;
14121;SDS011;7139;48.114;11.442;2022-12-31T15:42:20;1.70;;;1.50;;
14121;SDS011;7139;48.114;11.442;2022-12-31T15:44:56;2.57;;;1.80;;
14121;SDS011;7139;48.114;11.442;2022-12-31T15:47:26;3.07;;;1.80;;
14121;SDS011;7139;48.114;11.442;2022-12-31T15:49:55;3.00;;;1.80;;
14121;SDS011;7139;48.114;11.442;2022-12-31T15:52:25;5.40;;;1.97;;
14121;SDS011;7139;48.114;11.442;2022-12-31T15:54:57;3.00;;;2.13;;